createdAt,value
2023-01-05T00:00:32.657Z,14.90
2023-01-05T00:05:34.816Z,19.67
2023-01-05T00:10:56.595Z,13.85
2023-01-05T00:16:18.825Z,10.88
2023-01-05T00:21:39.690Z,9.45
2023-01-05T00:26:41.871Z,15.77
2023-01-05T00:31:44.123Z,5.32
2023-01-05T00:36:46.206Z,7.13
2023-01-05T00:41:48.346Z,5.85
2023-01-05T00:46:50.497Z,9.18
2023-01-05T00:51:52.549Z,8.05
2023-01-05T00:56:54.668Z,11.27
2023-01-05T01:01:56.886Z,9.77
2023-01-05T01:06:59.569Z,10.98
2023-01-05T01:12:02.166Z,6.53
2023-01-05T01:17:04.541Z,3.42
2023-01-05T01:22:06.779Z,6.38
2023-01-05T01:27:08.919Z,6.13
2023-01-05T01:32:11.080Z,6.53
2023-01-05T01:37:13.594Z,7.93
2023-01-05T01:42:22.481Z,7.38
2023-01-05T01:47:28.522Z,9.25
2023-01-05T01:52:33.005Z,4.97
2023-01-05T01:57:36.682Z,15.43
2023-01-05T02:02:38.909Z,25.05
2023-01-05T02:07:46.056Z,23.88
2023-01-05T02:13:10.307Z,20.27
2023-01-05T02:18:46.423Z,17.98
2023-01-05T02:24:36.348Z,20.73
2023-01-05T02:29:50.830Z,19.13
2023-01-05T02:35:23.089Z,18.23
2023-01-05T02:40:32.266Z,10.60
2023-01-05T02:45:35.753Z,13.43
2023-01-05T02:50:52.461Z,12.57
2023-01-05T02:56:02.555Z,12.88
2023-01-05T03:01:17.711Z,17.95
2023-01-05T03:06:33.248Z,13.15
2023-01-05T03:12:25.767Z,16.35
2023-01-05T03:17:47.796Z,16.63
2023-01-05T03:23:11.446Z,27.50
2023-01-05T03:28:42.275Z,12.60
2023-01-05T03:34:16.227Z,14.77
2023-01-05T03:39:26.647Z,23.83
2023-01-05T03:44:29.978Z,28.58
2023-01-05T03:49:33.795Z,14.13
2023-01-05T03:54:36.494Z,34.45
2023-01-05T03:59:39.559Z,23.05
2023-01-05T04:04:41.750Z,22.15
2023-01-05T04:09:45.230Z,20.80
2023-01-05T04:14:48.574Z,23.60
2023-01-05T04:19:50.976Z,24.85
2023-01-05T04:24:54.787Z,26.67
2023-01-05T04:29:57.505Z,25.55
2023-01-05T04:35:03.890Z,30.48
2023-01-05T04:40:11.451Z,41.03
2023-01-05T04:45:25.516Z,21.88
2023-01-05T04:50:28.449Z,46.22
2023-01-05T04:55:31.945Z,31.42
2023-01-05T05:00:34.337Z,37.17
2023-01-05T05:05:41.043Z,39.80
2023-01-05T05:10:44.642Z,46.25
2023-01-05T05:15:47.576Z,40.25
2023-01-05T05:20:51.911Z,41.10
2023-01-05T05:25:56.213Z,37.13
2023-01-05T05:31:00.580Z,49.50
2023-01-05T05:36:02.763Z,40.45
2023-01-05T05:41:05.175Z,44.47
2023-01-05T05:46:07.509Z,48.20
2023-01-05T05:51:09.701Z,45.72
2023-01-05T05:56:11.793Z,55.05
2023-01-05T06:01:14.154Z,34.45
2023-01-05T06:06:16.304Z,45.88
2023-01-05T06:11:18.385Z,50.92
2023-01-05T06:16:20.805Z,47.65
2023-01-05T06:21:23.440Z,27.02
2023-01-05T06:26:25.564Z,38.03
2023-01-05T06:31:27.749Z,36.38
2023-01-05T06:36:29.914Z,48.72
2023-01-05T06:41:32.278Z,35.97
2023-01-05T06:46:34.397Z,52.83
2023-01-05T06:51:36.454Z,52.65
2023-01-05T06:56:38.760Z,21.35
2023-01-05T07:01:41.170Z,35.13
2023-01-05T07:06:43.427Z,29.10
2023-01-05T07:11:45.572Z,42.67
2023-01-05T07:16:47.914Z,30.73
2023-01-05T07:21:56.431Z,27.58
2023-01-05T07:27:04.372Z,40.17
2023-01-05T07:32:09.873Z,37.72
2023-01-05T07:37:12.065Z,25.35
2023-01-05T07:42:14.228Z,27.38
2023-01-05T07:47:17.014Z,31.35
2023-01-05T07:52:19.273Z,23.85
2023-01-05T07:57:21.383Z,36.75
2023-01-05T08:02:23.703Z,19.92
2023-01-05T08:07:25.887Z,33.42
2023-01-05T08:12:29.298Z,32.03
2023-01-05T08:17:31.450Z,37.05
2023-01-05T08:22:33.644Z,37.72
2023-01-05T08:27:35.921Z,23.55
2023-01-05T08:32:38.648Z,22.20
2023-01-05T08:37:40.853Z,28.63
2023-01-05T08:42:43.208Z,30.17
2023-01-05T08:47:45.530Z,20.77
2023-01-05T08:52:47.639Z,23.70
2023-01-05T08:57:50.284Z,24.23
2023-01-05T09:02:52.651Z,23.17
2023-01-05T09:07:54.833Z,27.83
2023-01-05T09:12:56.997Z,32.97
2023-01-05T09:17:59.387Z,25.63
2023-01-05T09:23:01.663Z,24.10
2023-01-05T09:28:03.847Z,29.02
2023-01-05T09:33:06.010Z,27.88
2023-01-05T09:38:08.122Z,34.17
2023-01-05T09:43:20.192Z,37.00
2023-01-05T09:48:23.713Z,25.65
2023-01-05T09:53:30.222Z,18.25
2023-01-05T09:58:40.851Z,21.40
2023-01-05T10:04:16.779Z,9.15
2023-01-05T10:09:22.434Z,28.23
2023-01-05T10:14:45.797Z,21.85
2023-01-05T10:19:49.026Z,21.40
2023-01-05T10:25:00.409Z,20.77
2023-01-05T10:30:17.535Z,25.52
2023-01-05T10:36:03.202Z,16.25
2023-01-05T10:41:29.824Z,11.93
2023-01-05T10:46:40.032Z,16.27
2023-01-05T10:51:47.116Z,25.08
2023-01-05T10:56:52.224Z,14.23
2023-01-05T11:01:54.542Z,13.30
2023-01-05T11:07:05.512Z,10.43
2023-01-05T11:12:21.030Z,21.45
2023-01-05T11:17:26.552Z,7.60
2023-01-05T11:22:28.750Z,7.53
2023-01-05T11:27:31.124Z,8.77
2023-01-05T11:32:34.124Z,10.43
2023-01-05T11:37:36.617Z,5.40
2023-01-05T11:42:43.577Z,5.03
2023-01-05T11:47:48.691Z,8.30
2023-01-05T11:53:02.518Z,5.90
2023-01-05T11:58:16.273Z,5.55
2023-01-05T12:03:36.974Z,13.25
2023-01-05T12:09:00.211Z,2.45
2023-01-05T12:14:24.767Z,3.78
2023-01-05T12:19:45.879Z,3.55
2023-01-05T12:24:50.821Z,3.75
2023-01-05T12:36:21.698Z,7.50
2023-01-05T12:41:42.773Z,5.30
2023-01-05T12:47:06.094Z,0.20
2023-01-05T12:52:25.448Z,7.47
2023-01-05T12:57:36.750Z,5.00
2023-01-05T13:02:55.724Z,3.50
2023-01-05T13:08:18.288Z,2.83
2023-01-05T13:13:27.569Z,6.15
2023-01-05T13:18:32.131Z,1.17
2023-01-05T13:23:51.855Z,4.00
2023-01-05T13:28:57.880Z,2.70
2023-01-05T13:34:20.845Z,2.30
2023-01-05T13:39:59.893Z,1.85
2023-01-05T13:45:34.538Z,2.25
2023-01-05T13:50:39.798Z,1.25
2023-01-05T13:55:58.960Z,3.10
2023-01-05T14:01:04.987Z,3.63
2023-01-05T14:06:26.430Z,3.03
2023-01-05T14:11:29.571Z,3.45
2023-01-05T14:16:41.372Z,8.27
2023-01-05T14:21:49.582Z,4.07
2023-01-05T14:27:07.735Z,7.05
2023-01-05T14:32:12.854Z,0.95
2023-01-05T14:37:45.880Z,1.23
2023-01-05T14:42:50.387Z,3.00
2023-01-05T14:47:58.890Z,1.73
2023-01-05T14:53:10.654Z,5.17
2023-01-05T14:58:15.792Z,3.33
2023-01-05T15:03:39.761Z,3.03
2023-01-05T15:09:09.870Z,1.42
2023-01-05T15:14:44.975Z,5.65
2023-01-05T15:19:52.778Z,2.20
2023-01-05T15:25:39.217Z,4.32
2023-01-05T15:31:07.779Z,1.98
2023-01-05T15:36:23.420Z,3.22
2023-01-05T15:41:27.656Z,1.20
2023-01-05T15:46:33.902Z,0.20
2023-01-05T15:51:40.686Z,1.40
2023-01-05T15:56:44.297Z,3.50
2023-01-05T16:01:46.495Z,4.30
2023-01-05T16:06:53.444Z,4.60
2023-01-05T16:12:09.323Z,12.00
2023-01-05T16:17:15.767Z,7.32
2023-01-05T16:22:42.632Z,3.63
2023-01-05T16:28:00.727Z,6.50
2023-01-05T16:33:19.470Z,11.63
2023-01-05T16:38:24.808Z,4.85
2023-01-05T16:43:36.473Z,4.22
2023-01-05T16:48:39.565Z,6.43
2023-01-05T16:53:57.972Z,8.85
2023-01-05T16:59:01.112Z,8.20
2023-01-05T17:04:18.111Z,8.75
2023-01-05T17:09:36.674Z,5.35
2023-01-05T17:14:43.088Z,10.55
2023-01-05T17:24:52.743Z,3.63
2023-01-05T17:34:57.550Z,4.40
2023-01-05T17:40:07.119Z,4.47
2023-01-05T17:45:16.678Z,4.37
2023-01-05T17:50:38.059Z,1.67
2023-01-05T17:55:48.604Z,6.15
2023-01-05T18:00:51.187Z,5.97
2023-01-05T18:05:54.039Z,6.35
2023-01-05T18:11:04.248Z,5.60
2023-01-05T18:16:12.519Z,6.82
2023-01-05T18:21:15.345Z,8.35
2023-01-05T18:26:17.582Z,6.82
2023-01-05T18:31:20.599Z,9.63
2023-01-05T18:36:26.052Z,7.50
2023-01-05T18:41:32.191Z,7.15
2023-01-05T18:46:45.013Z,11.52
2023-01-05T18:51:52.350Z,43.10
2023-01-05T18:57:00.571Z,7.80
2023-01-05T19:07:15.510Z,25.73
2023-01-05T19:12:21.522Z,21.02
2023-01-05T19:17:23.928Z,11.23
2023-01-05T19:22:32.577Z,10.88
2023-01-05T19:27:38.624Z,6.75
2023-01-05T19:32:48.541Z,11.55
2023-01-05T19:38:01.526Z,4.65
2023-01-05T19:43:05.223Z,11.63
2023-01-05T19:48:07.358Z,9.02
2023-01-05T19:53:13.817Z,12.73
2023-01-05T19:58:19.306Z,7.13
2023-01-05T20:03:22.525Z,4.75
2023-01-05T20:08:25.469Z,7.97
2023-01-05T20:13:28.013Z,7.97
2023-01-05T20:18:32.766Z,5.43
2023-01-05T20:23:39.740Z,5.07
2023-01-05T20:28:42.443Z,5.45
2023-01-05T20:33:44.814Z,8.07
2023-01-05T20:38:47.690Z,8.10
2023-01-05T20:44:15.979Z,18.58
2023-01-05T20:49:19.072Z,8.43
2023-01-05T20:54:21.649Z,10.77
2023-01-05T20:59:29.290Z,2.08
2023-01-05T21:04:36.280Z,20.10
2023-01-05T21:09:43.039Z,8.20
2023-01-05T21:14:45.495Z,12.40
2023-01-05T21:20:02.164Z,10.30
2023-01-05T21:25:06.991Z,11.93
2023-01-05T21:30:10.318Z,22.20
2023-01-05T21:35:14.896Z,14.55
2023-01-05T21:40:20.393Z,9.90
2023-01-05T21:45:36.326Z,7.65
2023-01-05T21:50:58.367Z,6.75
2023-01-05T21:56:19.989Z,9.82
2023-01-05T22:01:24.486Z,10.93
2023-01-05T22:06:27.255Z,10.05
2023-01-05T22:11:32.642Z,12.27
2023-01-05T22:16:35.637Z,12.00
2023-01-05T22:21:38.884Z,4.32
2023-01-05T22:26:41.225Z,3.97
2023-01-05T22:31:44.787Z,15.88
2023-01-05T22:36:50.796Z,18.15
2023-01-05T22:41:52.986Z,6.25
2023-01-05T22:46:56.646Z,27.67
2023-01-05T22:51:59.825Z,38.28
2023-01-05T22:57:02.180Z,25.05
2023-01-05T23:02:04.467Z,9.43
2023-01-05T23:07:07.863Z,21.88
2023-01-05T23:12:12.132Z,10.65
2023-01-05T23:17:15.648Z,16.13
2023-01-05T23:22:18.146Z,11.23
2023-01-05T23:27:22.932Z,19.50
2023-01-05T23:32:28.386Z,10.35
2023-01-05T23:37:31.991Z,9.95
2023-01-05T23:42:46.168Z,12.10
2023-01-05T23:47:50.829Z,16.05
2023-01-05T23:52:56.374Z,9.38
2023-01-05T23:57:59.774Z,19.27
